createdAt,value
2022-12-08T00:00:05.041Z,6.57
2022-12-08T00:02:38.754Z,6.10
2022-12-08T00:05:24.971Z,6.50
2022-12-08T00:08:09.926Z,5.90
2022-12-08T00:10:51.827Z,5.68
2022-12-08T00:13:18.474Z,6.47
2022-12-08T00:15:45.009Z,5.82
2022-12-08T00:18:11.672Z,6.47
2022-12-08T00:20:39.098Z,6.40
2022-12-08T00:23:05.956Z,6.28
2022-12-08T00:25:36.667Z,6.65
2022-12-08T00:28:03.282Z,6.45
2022-12-08T00:30:29.930Z,6.78
2022-12-08T00:32:56.592Z,7.38
2022-12-08T00:35:23.399Z,7.18
2022-12-08T00:37:50.031Z,7.20
2022-12-08T00:40:16.604Z,7.57
2022-12-08T00:42:43.213Z,6.97
2022-12-08T00:45:10.352Z,7.22
2022-12-08T00:47:36.871Z,7.57
2022-12-08T00:50:04.350Z,7.10
2022-12-08T00:52:31.059Z,7.35
2022-12-08T00:54:57.588Z,7.35
2022-12-08T00:57:24.156Z,7.82
2022-12-08T00:59:50.746Z,7.82
2022-12-08T01:02:17.312Z,8.18
2022-12-08T01:04:43.957Z,7.90
2022-12-08T01:07:10.502Z,7.90
2022-12-08T01:09:37.269Z,7.80
2022-12-08T01:12:05.103Z,8.20
2022-12-08T01:14:31.701Z,7.35
2022-12-08T01:16:58.452Z,8.25
2022-12-08T01:19:25.131Z,7.38
2022-12-08T01:21:51.625Z,7.72
2022-12-08T01:24:20.947Z,8.65
2022-12-08T01:26:48.431Z,8.40
2022-12-08T01:29:15.574Z,7.72
2022-12-08T01:31:42.581Z,7.80
2022-12-08T01:34:10.599Z,8.13
2022-12-08T01:36:38.194Z,7.90
2022-12-08T01:39:07.686Z,8.07
2022-12-08T01:41:36.439Z,7.80
2022-12-08T01:44:22.908Z,7.15
2022-12-08T01:46:49.828Z,6.53
2022-12-08T01:49:23.994Z,6.30
2022-12-08T01:52:01.303Z,7.28
2022-12-08T01:54:37.065Z,7.68
2022-12-08T01:57:08.547Z,7.75
2022-12-08T01:59:41.503Z,7.75
2022-12-08T02:02:10.520Z,7.93
2022-12-08T02:04:37.612Z,8.25
2022-12-08T02:07:08.279Z,7.32
2022-12-08T02:09:36.553Z,7.30
2022-12-08T02:12:04.090Z,6.65
2022-12-08T02:14:30.739Z,7.30
2022-12-08T02:17:12.506Z,6.30
2022-12-08T02:20:15.728Z,6.28
2022-12-08T02:22:55.006Z,6.65
2022-12-08T02:25:31.216Z,5.90
2022-12-08T02:28:12.803Z,5.75
2022-12-08T02:31:24.020Z,6.05
2022-12-08T02:33:53.274Z,6.03
2022-12-08T02:36:28.648Z,5.28
2022-12-08T02:39:25.192Z,5.93
2022-12-08T02:42:16.549Z,5.72
2022-12-08T02:44:51.663Z,5.40
2022-12-08T02:47:20.427Z,6.10
2022-12-08T02:49:47.821Z,5.22
2022-12-08T02:52:14.250Z,5.72
2022-12-08T02:54:56.437Z,5.90
2022-12-08T02:57:32.076Z,5.50
2022-12-08T03:00:14.036Z,5.57
2022-12-08T03:02:59.330Z,5.93
2022-12-08T03:05:58.314Z,6.13
2022-12-08T03:08:35.362Z,5.93
2022-12-08T03:11:10.311Z,6.30
2022-12-08T03:13:44.950Z,6.03
2022-12-08T03:16:16.285Z,6.07
2022-12-08T03:18:48.352Z,6.32
2022-12-08T03:21:17.756Z,5.90
2022-12-08T03:23:48.006Z,6.15
2022-12-08T03:26:25.148Z,5.72
2022-12-08T03:28:51.734Z,6.05
2022-12-08T03:31:20.068Z,5.97
2022-12-08T03:33:51.587Z,5.95
2022-12-08T03:36:19.427Z,6.07
2022-12-08T03:38:50.010Z,6.22
2022-12-08T03:41:19.249Z,6.38
2022-12-08T03:43:52.715Z,6.07
2022-12-08T03:48:48.240Z,5.88
2022-12-08T03:51:15.591Z,5.90
2022-12-08T03:53:42.334Z,6.05
2022-12-08T03:56:16.678Z,5.22
2022-12-08T03:58:43.913Z,5.72
2022-12-08T04:01:11.067Z,5.75
2022-12-08T04:03:37.698Z,5.30
2022-12-08T04:06:04.436Z,4.95
2022-12-08T04:08:30.931Z,6.03
2022-12-08T04:10:57.463Z,4.93
2022-12-08T04:13:24.045Z,5.10
2022-12-08T04:15:50.835Z,5.80
2022-12-08T04:18:17.408Z,5.50
2022-12-08T04:20:45.179Z,5.63
2022-12-08T04:23:12.463Z,5.75
2022-12-08T04:25:39.386Z,6.15
2022-12-08T04:28:06.686Z,5.35
2022-12-08T04:30:33.727Z,5.57
2022-12-08T04:33:00.246Z,5.75
2022-12-08T04:35:28.558Z,5.68
2022-12-08T04:37:55.059Z,5.90
2022-12-08T04:40:21.610Z,5.13
2022-12-08T04:42:48.206Z,5.35
2022-12-08T04:45:15.590Z,5.72
2022-12-08T04:47:42.234Z,5.18
2022-12-08T04:50:09.099Z,5.65
2022-12-08T04:52:36.517Z,5.50
2022-12-08T04:55:03.993Z,5.35
2022-12-08T04:57:30.505Z,5.30
2022-12-08T04:59:57.088Z,5.95
2022-12-08T05:02:23.772Z,5.75
2022-12-08T05:04:50.505Z,5.70
2022-12-08T05:07:17.020Z,6.03
2022-12-08T05:09:43.956Z,5.93
2022-12-08T05:12:10.664Z,5.93
2022-12-08T05:14:37.193Z,6.28
2022-12-08T05:17:09.157Z,5.63
2022-12-08T05:19:36.289Z,5.28
2022-12-08T05:22:02.847Z,6.03
2022-12-08T05:24:29.376Z,6.28
2022-12-08T05:26:55.999Z,5.90
2022-12-08T05:29:22.613Z,6.05
2022-12-08T05:31:49.244Z,6.50
2022-12-08T05:34:15.978Z,5.78
2022-12-08T05:36:42.521Z,6.65
2022-12-08T05:39:12.441Z,6.47
2022-12-08T05:41:39.276Z,6.43
2022-12-08T05:44:06.133Z,6.53
2022-12-08T05:46:33.397Z,6.38
2022-12-08T05:49:00.609Z,5.78
2022-12-08T05:51:27.776Z,6.68
2022-12-08T05:53:57.121Z,7.13
2022-12-08T05:56:24.058Z,6.80
2022-12-08T05:58:50.669Z,5.78
2022-12-08T06:01:25.745Z,7.25
2022-12-08T06:03:52.869Z,6.85
2022-12-08T06:06:20.402Z,6.90
2022-12-08T06:08:47.161Z,7.18
2022-12-08T06:11:22.395Z,7.05
2022-12-08T06:13:49.702Z,7.00
2022-12-08T06:16:16.919Z,6.97
2022-12-08T06:18:43.955Z,7.50
2022-12-08T06:21:12.510Z,6.55
2022-12-08T06:23:39.248Z,6.72
2022-12-08T06:26:09.413Z,7.60
2022-12-08T06:28:36.454Z,8.05
2022-12-08T06:31:20.875Z,7.53
2022-12-08T06:33:48.039Z,8.43
2022-12-08T06:36:17.074Z,7.78
2022-12-08T06:38:44.331Z,8.35
2022-12-08T06:41:12.215Z,8.20
2022-12-08T06:43:39.484Z,8.10
2022-12-08T06:46:09.108Z,7.75
2022-12-08T06:48:35.949Z,8.52
2022-12-08T06:51:15.084Z,8.80
2022-12-08T06:53:42.886Z,8.40
2022-12-08T06:56:10.722Z,9.02
2022-12-08T06:58:37.670Z,9.05
2022-12-08T07:01:10.329Z,9.07
2022-12-08T07:03:38.017Z,8.57
2022-12-08T07:06:05.742Z,8.38
2022-12-08T07:08:34.053Z,8.32
2022-12-08T07:11:08.384Z,8.85
2022-12-08T07:13:34.993Z,8.63
2022-12-08T07:16:04.443Z,8.30
2022-12-08T07:18:30.951Z,8.30
2022-12-08T07:21:02.334Z,8.32
2022-12-08T07:23:28.892Z,8.25
2022-12-08T07:25:55.473Z,8.20
2022-12-08T07:28:22.018Z,8.48
2022-12-08T07:30:48.627Z,8.18
2022-12-08T07:33:15.225Z,8.10
2022-12-08T07:35:46.326Z,8.00
2022-12-08T07:38:15.599Z,8.45
2022-12-08T07:40:42.218Z,8.35
2022-12-08T07:43:08.884Z,8.30
2022-12-08T07:45:35.388Z,7.97
2022-12-08T07:48:01.909Z,8.27
2022-12-08T07:50:28.516Z,8.48
2022-12-08T07:52:55.045Z,8.80
2022-12-08T07:55:21.845Z,8.80
2022-12-08T07:57:50.647Z,9.05
2022-12-08T08:00:18.650Z,9.20
2022-12-08T08:02:45.702Z,9.38
2022-12-08T08:05:13.032Z,8.88
2022-12-08T08:07:44.153Z,8.35
2022-12-08T08:10:12.320Z,8.75
2022-12-08T08:12:39.099Z,8.88
2022-12-08T08:15:07.922Z,9.73
2022-12-08T08:17:36.751Z,9.02
2022-12-08T08:20:08.001Z,9.10
2022-12-08T08:22:35.437Z,9.30
2022-12-08T08:25:02.137Z,8.55
2022-12-08T08:27:29.053Z,8.57
2022-12-08T08:29:55.564Z,10.15
2022-12-08T08:32:22.074Z,9.32
2022-12-08T08:34:51.814Z,9.25
2022-12-08T08:37:18.539Z,9.80
2022-12-08T08:39:45.181Z,9.73
2022-12-08T08:42:11.704Z,9.70
2022-12-08T08:44:38.976Z,8.75
2022-12-08T08:47:05.662Z,8.77
2022-12-08T08:49:32.402Z,10.15
2022-12-08T08:51:59.102Z,10.13
2022-12-08T08:54:25.641Z,9.60
2022-12-08T08:56:52.871Z,11.07
2022-12-08T08:59:19.499Z,10.32
2022-12-08T09:01:46.314Z,10.07
2022-12-08T09:04:13.055Z,9.00
2022-12-08T09:06:39.770Z,9.07
2022-12-08T09:09:06.388Z,8.75
2022-12-08T09:11:33.291Z,8.45
2022-12-08T09:13:59.959Z,8.55
2022-12-08T09:16:27.070Z,8.23
2022-12-08T09:18:54.272Z,7.70
2022-12-08T09:21:24.400Z,7.93
2022-12-08T09:23:53.132Z,7.45
2022-12-08T09:26:22.627Z,7.55
2022-12-08T09:28:51.063Z,7.32
2022-12-08T09:31:18.852Z,7.72
2022-12-08T09:33:47.613Z,7.13
2022-12-08T09:36:14.666Z,7.05
2022-12-08T09:38:41.435Z,6.40
2022-12-08T09:41:20.189Z,7.03
2022-12-08T09:44:02.600Z,6.88
2022-12-08T09:46:32.232Z,6.53
2022-12-08T09:49:00.683Z,6.70
2022-12-08T09:51:39.576Z,7.45
2022-12-08T09:54:12.645Z,6.65
2022-12-08T09:56:39.892Z,6.80
2022-12-08T09:59:20.943Z,7.13
2022-12-08T10:01:47.786Z,6.65
2022-12-08T10:04:36.532Z,6.07
2022-12-08T10:07:35.005Z,6.35
2022-12-08T10:10:27.663Z,6.47
2022-12-08T10:12:56.574Z,7.13
2022-12-08T10:15:42.126Z,6.65
2022-12-08T10:18:18.554Z,6.82
2022-12-08T10:20:50.402Z,6.60
2022-12-08T10:23:33.103Z,6.55
2022-12-08T10:26:04.721Z,6.55
2022-12-08T10:28:33.306Z,6.65
2022-12-08T10:31:00.015Z,6.18
2022-12-08T10:33:29.162Z,7.10
2022-12-08T10:36:03.205Z,6.85
2022-12-08T10:38:35.367Z,6.85
2022-12-08T10:41:13.101Z,6.78
2022-12-08T10:43:52.848Z,7.00
2022-12-08T10:46:22.737Z,7.80
2022-12-08T10:48:54.297Z,7.88
2022-12-08T10:51:39.621Z,7.10
2022-12-08T10:54:24.345Z,7.10
2022-12-08T10:56:56.192Z,7.18
2022-12-08T10:59:26.361Z,7.60
2022-12-08T11:01:56.126Z,6.90
2022-12-08T11:04:34.387Z,7.53
2022-12-08T11:07:01.628Z,6.95
2022-12-08T11:09:36.355Z,7.43
2022-12-08T11:12:09.414Z,7.38
2022-12-08T11:14:42.113Z,6.90
2022-12-08T11:17:22.572Z,6.97
2022-12-08T11:20:06.477Z,6.15
2022-12-08T11:22:37.955Z,6.38
2022-12-08T11:25:07.126Z,5.85
2022-12-08T11:27:40.133Z,4.90
2022-12-08T11:30:34.580Z,4.55
2022-12-08T11:33:12.021Z,3.53
2022-12-08T11:35:44.932Z,3.33
2022-12-08T11:38:22.359Z,3.22
2022-12-08T11:41:15.568Z,2.92
2022-12-08T11:44:14.019Z,2.90
2022-12-08T11:47:11.446Z,3.15
2022-12-08T11:49:40.994Z,3.38
2022-12-08T11:52:20.066Z,3.03
2022-12-08T11:55:16.585Z,2.88
2022-12-08T11:57:44.892Z,2.97
2022-12-08T12:00:16.594Z,2.58
2022-12-08T12:02:48.854Z,3.60
2022-12-08T12:08:44.976Z,3.50
2022-12-08T12:11:52.168Z,3.20
2022-12-08T12:14:49.519Z,2.95
2022-12-08T12:17:42.004Z,3.28
2022-12-08T12:20:21.126Z,2.78
2022-12-08T12:22:55.249Z,2.53
2022-12-08T12:25:25.364Z,2.85
2022-12-08T12:28:01.438Z,2.80
2022-12-08T12:30:51.616Z,2.83
2022-12-08T12:33:19.657Z,2.50
2022-12-08T12:35:48.256Z,3.55
2022-12-08T12:38:44.520Z,4.55
2022-12-08T12:41:13.865Z,4.13
2022-12-08T12:43:40.578Z,3.90
2022-12-08T12:46:25.573Z,4.38
2022-12-08T12:48:53.543Z,4.85
2022-12-08T12:51:45.255Z,4.95
2022-12-08T12:54:28.257Z,4.22
2022-12-08T12:57:15.405Z,4.38
2022-12-08T12:59:53.326Z,4.53
2022-12-08T13:02:29.825Z,4.40
2022-12-08T13:05:27.711Z,4.28
2022-12-08T13:07:59.967Z,4.07
2022-12-08T13:10:56.676Z,6.25
2022-12-08T13:13:23.350Z,3.45
2022-12-08T13:15:56.007Z,3.45
2022-12-08T13:18:36.420Z,3.35
2022-12-08T13:21:09.114Z,3.42
2022-12-08T13:23:38.673Z,4.32
2022-12-08T13:26:12.494Z,3.40
2022-12-08T13:29:04.272Z,2.80
2022-12-08T13:31:36.913Z,3.20
2022-12-08T13:34:32.480Z,3.10
2022-12-08T13:37:21.782Z,2.70
2022-12-08T13:39:51.661Z,3.22
2022-12-08T13:42:29.595Z,3.55
2022-12-08T13:45:21.299Z,3.05
2022-12-08T13:48:21.786Z,3.00
2022-12-08T13:52:59.954Z,3.05
2022-12-08T13:59:34.049Z,3.10
2022-12-08T14:02:15.554Z,3.17
2022-12-08T14:05:16.729Z,4.38
2022-12-08T14:07:34.380Z,3.10
2022-12-08T14:10:03.734Z,3.60
2022-12-08T14:12:31.572Z,3.17
2022-12-08T14:15:03.607Z,2.97
2022-12-08T14:17:30.952Z,2.78
2022-12-08T14:20:04.704Z,3.03
2022-12-08T14:22:36.994Z,3.08
2022-12-08T14:25:05.279Z,3.40
2022-12-08T14:27:35.644Z,3.10
2022-12-08T14:30:21.546Z,3.40
2022-12-08T14:32:50.635Z,3.20
2022-12-08T14:35:38.036Z,3.00
2022-12-08T14:38:19.731Z,3.45
2022-12-08T14:41:08.903Z,3.28
2022-12-08T14:43:35.882Z,2.95
2022-12-08T14:46:19.906Z,3.40
2022-12-08T14:48:47.354Z,3.30
2022-12-08T14:51:23.019Z,3.25
2022-12-08T14:54:09.752Z,3.35
2022-12-08T14:56:36.246Z,4.13
2022-12-08T14:59:13.644Z,4.60
2022-12-08T15:01:42.313Z,3.40
2022-12-08T15:04:18.146Z,3.63
2022-12-08T15:06:54.291Z,3.97
2022-12-08T15:09:51.753Z,3.60
2022-12-08T15:12:27.283Z,3.53
2022-12-08T15:15:16.514Z,3.80
2022-12-08T15:17:57.551Z,3.28
2022-12-08T15:20:43.102Z,3.40
2022-12-08T15:23:31.157Z,3.65
2022-12-08T15:25:59.473Z,3.28
2022-12-08T15:28:30.392Z,3.58
2022-12-08T15:30:58.065Z,3.60
2022-12-08T15:33:25.015Z,3.50
2022-12-08T15:35:51.897Z,3.72
2022-12-08T15:38:31.511Z,3.33
2022-12-08T15:41:01.279Z,3.38
2022-12-08T15:43:28.452Z,3.42
2022-12-08T15:45:59.651Z,3.53
2022-12-08T15:48:28.839Z,3.20
2022-12-08T15:50:56.521Z,3.50
2022-12-08T15:53:23.583Z,4.15
2022-12-08T15:56:18.911Z,3.70
2022-12-08T15:58:53.782Z,3.55
2022-12-08T16:01:21.913Z,3.70
2022-12-08T16:09:29.817Z,4.13
2022-12-08T16:12:14.990Z,4.30
2022-12-08T16:17:31.145Z,3.97
2022-12-08T16:19:59.053Z,4.30
2022-12-08T16:25:20.440Z,3.92
2022-12-08T16:30:36.334Z,3.90
2022-12-08T16:33:03.074Z,3.95
2022-12-08T16:35:30.336Z,4.72
2022-12-08T16:37:57.360Z,5.03
2022-12-08T16:40:24.127Z,4.72
2022-12-08T16:42:50.888Z,4.10
2022-12-08T16:49:28.766Z,7.35
2022-12-08T16:51:55.516Z,9.13
2022-12-08T16:54:22.146Z,9.02
2022-12-08T16:56:48.760Z,7.30
2022-12-08T16:59:15.311Z,7.30
2022-12-08T17:01:42.103Z,6.15
2022-12-08T17:04:31.475Z,6.60
2022-12-08T17:06:55.317Z,6.45
2022-12-08T17:09:21.854Z,6.22
2022-12-08T17:11:48.375Z,6.50
2022-12-08T17:14:16.555Z,7.30
2022-12-08T17:16:44.697Z,7.13
2022-12-08T17:19:15.273Z,8.50
2022-12-08T17:21:42.852Z,7.03
2022-12-08T17:24:09.512Z,6.90
2022-12-08T17:26:36.156Z,6.47
2022-12-08T17:29:03.839Z,7.57
2022-12-08T17:31:32.339Z,6.45
2022-12-08T17:34:04.417Z,6.35
2022-12-08T17:36:32.012Z,6.20
2022-12-08T17:39:00.356Z,6.32
2022-12-08T17:41:27.347Z,6.57
2022-12-08T17:43:54.030Z,5.88
2022-12-08T17:46:21.856Z,6.80
2022-12-08T17:48:48.570Z,7.10
2022-12-08T17:51:15.824Z,6.10
2022-12-08T17:53:42.428Z,6.35
2022-12-08T17:56:20.192Z,7.07
2022-12-08T17:58:52.645Z,8.07
2022-12-08T18:01:22.274Z,8.70
2022-12-08T18:03:48.874Z,16.45
2022-12-08T18:06:17.477Z,12.15
2022-12-08T18:08:44.454Z,11.38
2022-12-08T18:11:14.212Z,8.68
2022-12-08T18:13:41.032Z,8.75
2022-12-08T18:16:07.846Z,8.25
2022-12-08T18:18:34.484Z,8.02
2022-12-08T18:21:01.575Z,8.13
2022-12-08T18:23:28.331Z,7.72
2022-12-08T18:25:54.979Z,7.88
2022-12-08T18:28:21.670Z,8.10
2022-12-08T18:30:48.636Z,7.90
2022-12-08T18:33:15.488Z,7.43
2022-12-08T18:35:42.417Z,8.27
2022-12-08T18:38:09.068Z,8.00
2022-12-08T18:40:35.623Z,8.15
2022-12-08T18:43:02.125Z,7.78
2022-12-08T18:45:29.195Z,7.63
2022-12-08T18:47:56.032Z,8.15
2022-12-08T18:50:22.753Z,7.53
2022-12-08T18:52:49.464Z,7.55
2022-12-08T18:55:16.103Z,7.97
2022-12-08T18:57:43.213Z,7.05
2022-12-08T19:00:14.817Z,7.13
2022-12-08T19:02:42.361Z,8.10
2022-12-08T19:05:10.959Z,7.55
2022-12-08T19:07:38.551Z,7.32
2022-12-08T19:10:07.302Z,9.38
2022-12-08T19:12:34.079Z,9.85
2022-12-08T19:15:00.706Z,11.60
2022-12-08T19:17:29.607Z,11.20
2022-12-08T19:19:56.501Z,11.48
2022-12-08T19:22:23.069Z,11.07
2022-12-08T19:24:50.203Z,11.57
2022-12-08T19:27:18.166Z,9.68
2022-12-08T19:29:44.644Z,11.30
2022-12-08T19:32:11.198Z,9.82
2022-12-08T19:34:37.773Z,9.73
2022-12-08T19:37:04.386Z,9.25
2022-12-08T19:39:49.722Z,9.35
2022-12-08T19:42:38.009Z,9.13
2022-12-08T19:45:07.672Z,9.52
2022-12-08T19:47:34.283Z,8.45
2022-12-08T19:50:19.819Z,8.52
2022-12-08T19:52:46.398Z,8.68
2022-12-08T19:55:13.579Z,9.30
2022-12-08T19:57:40.159Z,9.23
2022-12-08T20:00:08.971Z,9.35
2022-12-08T20:02:39.506Z,9.45
2022-12-08T20:05:07.324Z,9.80
2022-12-08T20:07:34.317Z,10.27
2022-12-08T20:10:02.633Z,11.38
2022-12-08T20:12:29.379Z,10.50
2022-12-08T20:14:55.921Z,11.25
2022-12-08T20:17:22.699Z,10.57
2022-12-08T20:19:49.775Z,11.32
2022-12-08T20:22:16.342Z,10.50
2022-12-08T20:24:42.987Z,10.90
2022-12-08T20:27:09.687Z,10.50
2022-12-08T20:29:36.345Z,10.13
2022-12-08T20:32:03.111Z,10.50
2022-12-08T20:34:31.364Z,11.30
2022-12-08T20:36:58.045Z,10.98
2022-12-08T20:39:24.906Z,11.45
2022-12-08T20:41:52.242Z,10.63
2022-12-08T20:44:18.805Z,9.43
2022-12-08T20:46:49.405Z,11.77
2022-12-08T20:49:16.425Z,12.32
2022-12-08T20:51:44.507Z,12.07
2022-12-08T20:54:11.497Z,12.70
2022-12-08T20:56:42.134Z,11.80
2022-12-08T20:59:16.836Z,12.65
2022-12-08T21:01:43.813Z,11.57
2022-12-08T21:04:14.274Z,10.85
2022-12-08T21:06:41.278Z,10.70
2022-12-08T21:09:08.810Z,11.40
2022-12-08T21:11:35.908Z,11.98
2022-12-08T21:14:03.001Z,12.10
2022-12-08T21:16:29.849Z,12.23
2022-12-08T21:18:57.632Z,13.00
2022-12-08T21:21:24.213Z,12.57
2022-12-08T21:23:51.311Z,11.27
2022-12-08T21:26:20.516Z,11.50
2022-12-08T21:28:47.560Z,11.95
2022-12-08T21:31:17.384Z,12.38
2022-12-08T21:33:44.126Z,11.77
2022-12-08T21:36:14.148Z,11.32
2022-12-08T21:38:41.870Z,11.13
2022-12-08T21:41:11.636Z,10.35
2022-12-08T21:43:38.748Z,11.60
2022-12-08T21:46:05.640Z,11.98
2022-12-08T21:48:32.369Z,11.70
2022-12-08T21:51:04.821Z,12.07
2022-12-08T21:53:31.674Z,11.70
2022-12-08T21:55:58.221Z,13.35
2022-12-08T21:58:26.405Z,15.27
2022-12-08T22:00:53.398Z,13.43
2022-12-08T22:03:20.240Z,13.70
2022-12-08T22:05:47.035Z,12.98
2022-12-08T22:08:13.779Z,13.07
2022-12-08T22:10:40.657Z,12.95
2022-12-08T22:13:07.601Z,12.43
2022-12-08T22:15:34.295Z,11.55
2022-12-08T22:18:01.106Z,11.57
2022-12-08T22:20:27.914Z,10.40
2022-12-08T22:22:54.941Z,11.00
2022-12-08T22:25:21.865Z,11.45
2022-12-08T22:27:48.650Z,11.48
2022-12-08T22:30:15.497Z,11.15
2022-12-08T22:32:42.596Z,11.15
2022-12-08T22:35:10.104Z,11.00
2022-12-08T22:37:37.025Z,10.85
2022-12-08T22:40:05.206Z,10.77
2022-12-08T22:42:33.390Z,11.25
2022-12-08T22:53:24.315Z,10.57
2022-12-08T22:55:51.013Z,10.57
2022-12-08T22:58:17.793Z,11.15
2022-12-08T23:00:44.358Z,10.82
2022-12-08T23:03:11.679Z,11.88
2022-12-08T23:05:39.829Z,11.70
2022-12-08T23:08:08.342Z,12.05
2022-12-08T23:10:35.855Z,11.50
2022-12-08T23:13:04.153Z,11.07
2022-12-08T23:15:31.602Z,10.98
2022-12-08T23:17:58.305Z,11.20
2022-12-08T23:20:25.284Z,10.10
2022-12-08T23:22:52.008Z,11.00
2022-12-08T23:25:19.061Z,11.40
2022-12-08T23:27:46.229Z,11.43
2022-12-08T23:30:13.723Z,12.68
2022-12-08T23:32:40.466Z,11.85
2022-12-08T23:35:07.994Z,11.45
2022-12-08T23:37:34.775Z,11.63
2022-12-08T23:40:01.891Z,11.20
2022-12-08T23:42:30.456Z,11.02
2022-12-08T23:44:57.226Z,11.55
2022-12-08T23:47:24.146Z,9.60
2022-12-08T23:49:50.840Z,11.75
2022-12-08T23:52:17.395Z,11.48
2022-12-08T23:54:44.850Z,11.18
2022-12-08T23:57:11.680Z,11.40
2022-12-08T23:59:38.233Z,10.82
